Kapalua Airport Lahaina US
ICAO: PHJH
IATA:
Category: Medium
Scheduled Services:

Elevation: 256 ft
TransAlt. 0 ft.

Airport Communications:
AWOS:118.525
MAUI RDO:123.6
CTAF/UNICOM:122.7

PHJH Zoom In..

Runways:

(A) RW 02 length 3000 ft width 100 ft
---- / hdg 17

(B) RW 20 length 3000 ft width 100 ft
---- / hdg 197

Location; PHJH
Day. 20 / Time. 19.50 Zulu
* Altimeter: 30.00
* Temperature: 29° c. 84.2°f.
* Wind from: 050° Speed 12 kn.
Dewpoint: 20° c.
Visibility: 15 Statute Miles.
Clouds: Few 2500 ft.
Clouds: Few 4500 ft.

PHJH 201950Z 05012KT 15SM FEW025 FEW045 29/20 A3000


Wind From 050°
Speed 12 kn.

 
 
jpsmedia.com for Web Design worldairports.se 2018   terms of use